createdAt,value
2022-09-16T00:01:41.246Z,99.90
2022-09-16T00:06:43.796Z,99.90
2022-09-16T00:11:46.130Z,99.90
2022-09-16T00:16:48.464Z,99.90
2022-09-16T00:21:51.008Z,99.90
2022-09-16T00:26:53.340Z,99.90
2022-09-16T00:31:55.745Z,99.90
2022-09-16T00:36:58.184Z,99.90
2022-09-16T00:42:01.918Z,99.90
2022-09-16T00:47:04.626Z,99.90
2022-09-16T00:52:08.287Z,99.90
2022-09-16T00:57:13.020Z,99.90
2022-09-16T01:02:19.530Z,99.90
2022-09-16T01:07:46.245Z,99.90
2022-09-16T01:13:04.961Z,99.90
2022-09-16T01:18:07.610Z,99.90
2022-09-16T01:23:28.854Z,99.90
2022-09-16T01:28:49.281Z,99.90
2022-09-16T01:34:27.453Z,99.90
2022-09-16T01:39:38.391Z,99.90
2022-09-16T01:44:47.485Z,99.90
2022-09-16T01:49:59.567Z,99.90
2022-09-16T01:55:07.912Z,99.90
2022-09-16T02:00:15.856Z,99.90
2022-09-16T02:05:33.969Z,99.90
2022-09-16T02:10:43.132Z,99.90
2022-09-16T02:15:49.662Z,99.90
2022-09-16T02:20:54.679Z,99.90
2022-09-16T02:25:59.145Z,99.90
2022-09-16T02:31:05.963Z,99.90
2022-09-16T02:36:10.550Z,99.90
2022-09-16T02:41:14.977Z,99.90
2022-09-16T02:46:38.414Z,99.90
2022-09-16T02:52:03.248Z,99.90
2022-09-16T02:57:06.041Z,99.90
2022-09-16T03:02:08.614Z,99.90
2022-09-16T03:07:12.257Z,99.90
2022-09-16T03:12:46.454Z,99.90
2022-09-16T03:17:55.163Z,99.90
2022-09-16T03:23:14.192Z,99.90
2022-09-16T03:28:31.983Z,99.90
2022-09-16T03:33:51.068Z,99.90
2022-09-16T03:38:55.139Z,99.90
2022-09-16T03:44:03.791Z,99.90
2022-09-16T03:49:06.499Z,99.90
2022-09-16T03:54:09.126Z,99.90
2022-09-16T03:59:11.474Z,99.90
2022-09-16T04:04:13.880Z,99.90
2022-09-16T04:09:16.877Z,99.90
2022-09-16T04:14:20.690Z,99.90
2022-09-16T04:19:23.165Z,99.90
2022-09-16T04:24:25.613Z,99.90
2022-09-16T04:29:29.041Z,99.90
2022-09-16T04:34:32.552Z,99.90
2022-09-16T04:39:35.040Z,99.90
2022-09-16T04:44:37.410Z,99.90
2022-09-16T04:49:48.307Z,99.90
2022-09-16T04:55:01.618Z,99.90
2022-09-16T05:07:19.814Z,99.90
2022-09-16T05:12:41.841Z,99.90
2022-09-16T05:17:51.384Z,99.90
2022-09-16T05:22:54.122Z,99.90
2022-09-16T05:27:56.623Z,99.90
2022-09-16T05:32:59.132Z,99.90
2022-09-16T05:38:01.543Z,99.90
2022-09-16T05:43:03.944Z,99.90
2022-09-16T05:48:06.446Z,99.90
2022-09-16T05:53:08.988Z,99.90
2022-09-16T05:58:11.430Z,99.90
2022-09-16T06:03:14.167Z,99.90
2022-09-16T06:08:16.771Z,99.90
2022-09-16T06:13:19.719Z,99.90
2022-09-16T06:18:23.916Z,99.90
2022-09-16T06:23:26.534Z,99.90
2022-09-16T06:28:29.729Z,99.90
2022-09-16T06:33:33.070Z,99.90
2022-09-16T06:38:36.335Z,99.90
2022-09-16T06:43:39.296Z,99.90
2022-09-16T06:48:43.521Z,99.90
2022-09-16T06:53:46.903Z,99.90
2022-09-16T06:58:55.795Z,99.90
2022-09-16T07:04:01.974Z,99.90
2022-09-16T07:09:04.578Z,99.90
2022-09-16T07:14:09.462Z,99.90
2022-09-16T07:19:12.311Z,99.90
2022-09-16T07:24:15.317Z,99.90
2022-09-16T07:29:19.577Z,99.90
2022-09-16T07:34:28.168Z,99.90
2022-09-16T07:39:33.940Z,99.90
2022-09-16T07:44:36.452Z,99.90
2022-09-16T07:49:38.843Z,99.90
2022-09-16T07:54:44.528Z,99.90
2022-09-16T07:59:48.103Z,99.90
2022-09-16T08:04:50.563Z,99.90
2022-09-16T08:11:24.422Z,99.90
2022-09-16T08:16:51.458Z,99.90
2022-09-16T08:21:57.586Z,99.90
2022-09-16T08:27:28.786Z,99.90
2022-09-16T10:00:25.080Z,93.40
2022-09-16T10:05:32.110Z,93.10
2022-09-16T10:11:36.643Z,91.90
2022-09-16T10:16:41.902Z,91.20
2022-09-16T10:21:55.307Z,89.10
2022-09-16T10:27:00.666Z,90.70
2022-09-16T11:01:22.730Z,79.60
2022-09-16T11:07:41.181Z,81.30
2022-09-16T11:13:12.421Z,77.70
2022-09-16T11:18:30.256Z,78.80
2022-09-16T11:23:39.211Z,77.30
2022-09-16T11:29:00.822Z,77.40
2022-09-16T11:34:15.001Z,81.20
2022-09-16T11:39:25.329Z,96.80
2022-09-16T11:44:42.302Z,99.90
2022-09-16T11:49:50.639Z,99.20
2022-09-16T11:55:24.212Z,99.50
2022-09-16T12:00:27.543Z,97.00
2022-09-16T12:05:41.056Z,92.20
2022-09-16T12:10:48.094Z,85.80
2022-09-16T12:16:01.089Z,86.80
2022-09-16T12:21:19.773Z,83.20
2022-09-16T12:26:26.870Z,83.50
2022-09-16T12:31:43.929Z,77.60
2022-09-16T12:36:52.411Z,77.80
2022-09-16T12:42:16.450Z,77.70
2022-09-16T12:47:44.936Z,77.30
2022-09-16T12:52:54.822Z,73.10
2022-09-16T12:58:12.108Z,69.10
2022-09-16T13:03:21.074Z,68.00
2022-09-16T13:08:27.648Z,64.60
2022-09-16T13:13:35.769Z,62.50
2022-09-16T13:18:50.779Z,61.40
2022-09-16T13:24:06.146Z,63.80
2022-09-16T13:29:27.838Z,68.20
2022-09-16T13:34:31.264Z,65.90
2022-09-16T13:39:35.411Z,63.10
2022-09-16T13:44:38.579Z,61.30
2022-09-16T13:50:07.084Z,64.60
2022-09-16T13:55:27.172Z,67.00
2022-09-16T14:01:04.819Z,63.80
2022-09-16T14:06:33.346Z,67.20
2022-09-16T14:11:52.914Z,71.10
2022-09-16T14:16:55.429Z,75.70
2022-09-16T14:22:16.947Z,72.30
2022-09-16T14:27:27.635Z,63.00
2022-09-16T14:32:35.915Z,60.00
2022-09-16T14:37:39.500Z,61.30
2022-09-16T14:43:04.483Z,60.00
2022-09-16T14:48:10.195Z,54.60
2022-09-16T14:53:35.908Z,54.10
2022-09-16T14:58:40.218Z,53.70
2022-09-16T15:04:02.587Z,52.80
2022-09-16T15:09:48.242Z,50.20
2022-09-16T15:14:51.532Z,48.90
2022-09-16T15:20:16.286Z,48.80
2022-09-16T15:25:29.213Z,49.30
2022-09-16T15:30:33.037Z,51.20
2022-09-16T15:35:36.190Z,51.70
2022-09-16T15:40:39.396Z,52.50
2022-09-16T15:45:44.225Z,52.50
2022-09-16T15:51:25.719Z,54.70
2022-09-16T15:56:59.009Z,54.60
2022-09-16T16:02:05.858Z,53.40
2022-09-16T16:07:09.042Z,52.40
2022-09-16T16:12:14.459Z,53.90
2022-09-16T16:17:20.487Z,55.50
2022-09-16T16:22:23.038Z,58.40
2022-09-16T16:27:25.673Z,59.30
2022-09-16T16:32:29.052Z,60.00
2022-09-16T16:37:45.936Z,62.30
2022-09-16T16:42:48.685Z,65.30
2022-09-16T16:47:51.051Z,68.50
2022-09-16T16:52:53.446Z,71.30
2022-09-16T16:57:55.970Z,72.90
2022-09-16T17:02:58.521Z,73.50
2022-09-16T17:08:01.106Z,75.10
2022-09-16T17:13:03.565Z,75.20
2022-09-16T17:18:06.424Z,77.00
2022-09-16T17:23:08.797Z,77.60
2022-09-16T17:28:11.295Z,78.80
2022-09-16T17:33:13.695Z,80.10
2022-09-16T17:38:16.230Z,80.30
2022-09-16T17:43:18.576Z,81.50
2022-09-16T17:48:21.633Z,83.20
2022-09-16T17:53:24.359Z,84.30
2022-09-16T17:58:58.912Z,85.30
2022-09-16T18:04:02.119Z,85.70
2022-09-16T18:09:07.432Z,84.40
2022-09-16T18:14:12.433Z,84.60
2022-09-16T18:19:15.305Z,85.20
2022-09-16T18:24:17.879Z,85.70
2022-09-16T18:29:20.514Z,85.90
2022-09-16T18:34:24.744Z,87.10
2022-09-16T18:39:27.181Z,88.60
2022-09-16T18:44:29.612Z,90.10
2022-09-16T18:49:31.930Z,90.60
2022-09-16T18:54:34.326Z,91.10
2022-09-16T18:59:37.084Z,91.50
2022-09-16T19:04:41.632Z,92.20
2022-09-16T19:09:45.984Z,93.00
2022-09-16T19:14:48.395Z,93.70
2022-09-16T19:19:51.243Z,94.40
2022-09-16T19:24:54.507Z,95.30
2022-09-16T19:29:56.865Z,96.10
2022-09-16T19:34:59.229Z,96.70
2022-09-16T19:40:01.823Z,97.60
2022-09-16T19:45:04.544Z,98.40
2022-09-16T19:50:07.608Z,99.50
2022-09-16T19:55:10.085Z,99.90
2022-09-16T20:00:16.143Z,99.90
2022-09-16T20:05:18.467Z,99.90
2022-09-16T20:10:21.967Z,99.90
2022-09-16T20:15:24.887Z,99.90
2022-09-16T20:20:27.574Z,99.90
2022-09-16T20:25:30.093Z,99.90
2022-09-16T20:30:32.438Z,99.90
2022-09-16T20:35:34.885Z,99.90
2022-09-16T20:40:37.278Z,99.90
2022-09-16T20:45:39.925Z,99.90
2022-09-16T20:50:42.416Z,99.90
2022-09-16T20:55:44.777Z,99.90
2022-09-16T21:00:48.293Z,99.90
2022-09-16T21:05:50.811Z,99.90
2022-09-16T21:10:53.394Z,99.90
2022-09-16T21:15:59.766Z,99.90
2022-09-16T21:21:18.457Z,99.90
2022-09-16T21:26:22.966Z,99.90
2022-09-16T21:31:28.354Z,99.90
2022-09-16T21:36:31.294Z,99.90
2022-09-16T21:41:34.101Z,99.90
2022-09-16T21:46:43.123Z,99.90
2022-09-16T21:51:46.417Z,99.90
2022-09-16T21:56:49.896Z,99.90
2022-09-16T22:01:52.580Z,99.90
2022-09-16T22:06:55.651Z,99.90
2022-09-16T22:11:59.156Z,99.90
2022-09-16T22:17:01.540Z,99.90
2022-09-16T22:22:04.337Z,99.90
2022-09-16T22:27:06.661Z,99.90
2022-09-16T22:32:09.156Z,99.90
2022-09-16T22:37:11.522Z,99.90
2022-09-16T22:42:13.910Z,99.90
2022-09-16T22:47:16.251Z,99.90
2022-09-16T22:52:18.612Z,99.90
2022-09-16T22:57:21.013Z,99.90
2022-09-16T23:02:23.488Z,99.90
2022-09-16T23:07:25.833Z,99.90
2022-09-16T23:12:28.421Z,99.90
2022-09-16T23:17:30.832Z,99.90
2022-09-16T23:22:34.073Z,99.90
2022-09-16T23:27:36.421Z,99.90
2022-09-16T23:32:38.845Z,99.90
2022-09-16T23:37:41.872Z,99.90
2022-09-16T23:42:44.200Z,99.90
2022-09-16T23:47:47.139Z,99.90
2022-09-16T23:52:49.505Z,99.90
2022-09-16T23:57:51.882Z,99.90
